Time;durP1;ratioP1;P1;durP2;ratioP2;P2;SDS_P1;SDS_P2;PMS_P1;PMS_P2;Temp;Humidity;BMP_temperature;BMP_pressure;BME280_temperature;BME280_humidity;BME280_pressure;Samples;Min_cycle;Max_cycle;Signal;HPM_P1;HPM_P2
2022/05/23 00:00:57;;;;;;;17.35;9.90;;;;;;;;;;4930476;29;20028;-63
2022/05/23 00:03:23;;;;;;;18.27;9.52;;;;;;;;;;4997271;28;20077;-64
2022/05/23 00:05:49;;;;;;;16.08;9.13;;;;;;;;;;4931525;29;20019;-63
2022/05/23 00:08:15;;;;;;;17.50;9.27;;;;;;;;;;4931078;29;20468;-64
2022/05/23 00:10:41;;;;;;;15.20;8.82;;;;;;;;;;4996938;28;20047;-62
2022/05/23 00:13:07;;;;;;;16.08;9.48;;;;;;;;;;4931338;29;20027;-62
2022/05/23 00:15:36;;;;;;;17.35;8.73;;;;;;;;;;4931471;29;20565;-63
2022/05/23 00:18:02;;;;;;;16.20;9.25;;;;;;;;;;4931332;29;20020;-64
2022/05/23 00:20:28;;;;;;;18.83;9.15;;;;;;;;;;4931641;29;20031;-64
2022/05/23 00:22:54;;;;;;;18.98;9.05;;;;;;;;;;4931606;29;20065;-65
2022/05/23 00:25:20;;;;;;;16.13;8.65;;;;;;;;;;4931528;29;20024;-65
2022/05/23 00:27:47;;;;;;;16.92;8.48;;;;;;;;;;4931099;29;20024;-65
2022/05/23 00:30:14;;;;;;;18.92;9.52;;;;;;;;;;4931677;29;20399;-64
2022/05/23 00:35:25;;;;;;;15.82;8.38;;;;;;;;;;4931751;29;20410;-64
2022/05/23 00:37:52;;;;;;;17.13;9.00;;;;;;;;;;4930970;29;20093;-63
2022/05/23 00:40:24;;;;;;;18.70;8.63;;;;;;;;;;4931214;29;20495;-64
2022/05/23 00:45:35;;;;;;;16.05;8.52;;;;;;;;;;4931521;29;20034;-65
2022/05/23 00:48:01;;;;;;;17.10;8.40;;;;;;;;;;5015728;23;20032;-64
2022/05/23 00:50:28;;;;;;;18.23;8.60;;;;;;;;;;4933955;28;20122;-63
2022/05/23 00:52:56;;;;;;;15.88;8.75;;;;;;;;;;4950670;29;20031;-63
2022/05/23 00:55:31;;;;;;;16.05;8.95;;;;;;;;;;4934328;29;20034;-63
2022/05/23 00:58:01;;;;;;;15.63;8.68;;;;;;;;;;4934023;28;20047;-63
2022/05/23 01:00:28;;;;;;;16.20;8.45;;;;;;;;;;4951322;28;20031;-63
2022/05/23 01:02:56;;;;;;;16.15;8.77;;;;;;;;;;4951251;28;20035;-64
2022/05/23 01:05:22;;;;;;;15.75;8.60;;;;;;;;;;4951339;28;20078;-63
2022/05/23 01:07:48;;;;;;;17.05;8.60;;;;;;;;;;4950956;28;20032;-64
2022/05/23 01:10:14;;;;;;;16.05;9.13;;;;;;;;;;5017226;28;20028;-64
2022/05/23 01:12:41;;;;;;;19.20;9.20;;;;;;;;;;4951157;28;20039;-64
2022/05/23 01:15:18;;;;;;;17.33;9.10;;;;;;;;;;4951059;28;20395;-63
2022/05/23 01:17:44;;;;;;;15.63;8.68;;;;;;;;;;4950724;29;20032;-63
2022/05/23 01:20:11;;;;;;;17.67;9.25;;;;;;;;;;5016823;28;20395;-63
2022/05/23 01:23:03;;;;;;;15.70;9.10;;;;;;;;;;4950728;29;20055;-64
2022/05/23 01:25:29;;;;;;;16.63;8.70;;;;;;;;;;4958295;28;20037;-64
2022/05/23 01:27:55;;;;;;;19.30;9.40;;;;;;;;;;4950644;28;20026;-65
2022/05/23 01:30:22;;;;;;;18.27;8.90;;;;;;;;;;4950948;29;20102;-63
2022/05/23 01:32:48;;;;;;;16.90;9.38;;;;;;;;;;4950808;29;20471;-64
2022/05/23 01:35:14;;;;;;;16.48;8.88;;;;;;;;;;4951018;29;20032;-65
2022/05/23 01:37:40;;;;;;;17.85;9.00;;;;;;;;;;4950878;28;20027;-64
2022/05/23 01:40:08;;;;;;;17.35;9.95;;;;;;;;;;4950646;28;20030;-63
2022/05/23 01:42:34;;;;;;;16.97;8.50;;;;;;;;;;4950834;28;20031;-64
2022/05/23 01:45:00;;;;;;;17.02;8.88;;;;;;;;;;4950994;28;20399;-63
2022/05/23 01:47:26;;;;;;;17.85;9.27;;;;;;;;;;4950582;29;20391;-64
2022/05/23 01:49:52;;;;;;;16.75;9.00;;;;;;;;;;5016766;28;20037;-64
2022/05/23 01:52:18;;;;;;;16.83;9.35;;;;;;;;;;5016807;28;20453;-64
2022/05/23 01:54:44;;;;;;;16.55;9.45;;;;;;;;;;4950730;29;20070;-64
2022/05/23 01:57:11;;;;;;;18.33;9.40;;;;;;;;;;4950650;29;20077;-64
2022/05/23 02:02:23;;;;;;;16.27;9.57;;;;;;;;;;4950769;28;20038;-63
2022/05/23 02:04:49;;;;;;;17.88;9.68;;;;;;;;;;4953998;29;20077;-63
2022/05/23 02:07:15;;;;;;;18.20;9.27;;;;;;;;;;4953699;28;20035;-63
2022/05/23 02:09:41;;;;;;;17.00;9.30;;;;;;;;;;4953846;28;20114;-64
2022/05/23 02:12:08;;;;;;;18.15;9.77;;;;;;;;;;4953915;29;20027;-63
2022/05/23 02:14:35;;;;;;;16.35;9.25;;;;;;;;;;4953885;28;20059;-63
2022/05/23 02:17:02;;;;;;;18.00;9.35;;;;;;;;;;4953884;28;20046;-63
2022/05/23 02:19:31;;;;;;;16.23;9.00;;;;;;;;;;5019800;28;20030;-63
2022/05/23 02:21:57;;;;;;;18.70;9.00;;;;;;;;;;4953581;29;20034;-64
2022/05/23 02:24:23;;;;;;;16.98;9.27;;;;;;;;;;4953782;28;20023;-64
2022/05/23 02:26:49;;;;;;;16.83;9.40;;;;;;;;;;4953411;28;20039;-64
2022/05/23 02:29:15;;;;;;;18.00;9.50;;;;;;;;;;4953138;28;20102;-64
2022/05/23 02:31:41;;;;;;;17.85;9.60;;;;;;;;;;4953363;29;20031;-64
2022/05/23 02:34:08;;;;;;;15.98;9.00;;;;;;;;;;4953290;29;20035;-64
2022/05/23 02:36:33;;;;;;;16.85;9.18;;;;;;;;;;4953357;29;20475;-63
2022/05/23 02:38:59;;;;;;;18.80;9.45;;;;;;;;;;4953232;29;20089;-64
2022/05/23 02:41:25;;;;;;;19.63;9.25;;;;;;;;;;4953328;28;20023;-64
2022/05/23 02:43:51;;;;;;;17.25;9.32;;;;;;;;;;4953424;29;20051;-64
2022/05/23 02:46:17;;;;;;;20.13;10.13;;;;;;;;;;4953382;29;20016;-64
2022/05/23 02:48:43;;;;;;;22.17;10.15;;;;;;;;;;4952666;28;20039;-63
2022/05/23 02:51:09;;;;;;;18.60;9.60;;;;;;;;;;4953167;28;20058;-64
2022/05/23 02:53:35;;;;;;;19.98;10.20;;;;;;;;;;4953326;29;20062;-65
2022/05/23 02:56:01;;;;;;;17.73;9.38;;;;;;;;;;5019222;28;20027;-63
2022/05/23 02:58:27;;;;;;;19.08;10.07;;;;;;;;;;4952955;29;20027;-63
2022/05/23 03:00:53;;;;;;;18.08;10.25;;;;;;;;;;4952884;29;20077;-63
2022/05/23 03:03:19;;;;;;;16.40;9.40;;;;;;;;;;5019166;28;20027;-64
2022/05/23 03:05:46;;;;;;;18.65;9.88;;;;;;;;;;4953248;29;20019;-63
2022/05/23 03:08:14;;;;;;;18.00;9.63;;;;;;;;;;4952748;29;20073;-64
2022/05/23 03:10:40;;;;;;;17.13;10.02;;;;;;;;;;4953069;28;20031;-64
2022/05/23 03:13:06;;;;;;;18.08;9.90;;;;;;;;;;4952942;28;20032;-64
2022/05/23 03:15:33;;;;;;;16.30;9.52;;;;;;;;;;4951936;28;20547;-64
2022/05/23 03:17:59;;;;;;;18.55;9.55;;;;;;;;;;4952342;28;20523;-64
2022/05/23 03:20:26;;;;;;;20.15;10.30;;;;;;;;;;4952683;29;20042;-64
2022/05/23 03:28:21;;;;;;;16.90;10.30;;;;;;;;;;4952343;29;20505;-63
2022/05/23 03:30:47;;;;;;;18.17;10.77;;;;;;;;;;4952509;29;20050;-63
2022/05/23 03:33:14;;;;;;;18.00;10.35;;;;;;;;;;4952460;29;20024;-63
2022/05/23 03:35:40;;;;;;;18.05;10.20;;;;;;;;;;4952568;29;20023;-63
2022/05/23 03:38:07;;;;;;;18.25;10.13;;;;;;;;;;5018142;28;20019;-63
2022/05/23 03:40:34;;;;;;;20.13;10.88;;;;;;;;;;4952497;29;20497;-62
2022/05/23 03:43:00;;;;;;;17.90;10.23;;;;;;;;;;5018322;28;20506;-62
2022/05/23 03:45:26;;;;;;;20.52;11.15;;;;;;;;;;4952398;29;20436;-63
2022/05/23 03:47:53;;;;;;;18.10;10.75;;;;;;;;;;4951676;29;20031;-61
2022/05/23 03:50:23;;;;;;;17.35;9.70;;;;;;;;;;4952255;29;20089;-62
2022/05/23 03:52:49;;;;;;;19.63;10.88;;;;;;;;;;4952280;28;20081;-63
2022/05/23 03:55:15;;;;;;;16.58;10.15;;;;;;;;;;4952020;29;20411;-63
2022/05/23 03:57:41;;;;;;;16.98;10.15;;;;;;;;;;4951703;29;20102;-63
2022/05/23 04:00:09;;;;;;;16.90;10.65;;;;;;;;;;4952013;29;20475;-63
2022/05/23 04:02:35;;;;;;;18.90;10.10;;;;;;;;;;5017919;28;20487;-63
2022/05/23 04:05:01;;;;;;;20.73;12.02;;;;;;;;;;4952056;28;20768;-63
2022/05/23 04:07:27;;;;;;;17.35;10.73;;;;;;;;;;4951703;28;20019;-63
2022/05/23 04:09:54;;;;;;;18.95;10.82;;;;;;;;;;5017884;28;20376;-64
2022/05/23 04:12:20;;;;;;;19.65;10.30;;;;;;;;;;4951835;29;20118;-63
2022/05/23 04:14:46;;;;;;;20.95;10.98;;;;;;;;;;4951722;29;20066;-63
2022/05/23 04:17:12;;;;;;;18.42;10.95;;;;;;;;;;5017712;28;20098;-63
2022/05/23 04:19:38;;;;;;;20.95;12.05;;;;;;;;;;4951760;28;20054;-63
2022/05/23 04:22:04;;;;;;;18.23;11.70;;;;;;;;;;4951489;28;20031;-63
2022/05/23 04:24:30;;;;;;;17.52;11.00;;;;;;;;;;4951442;29;20042;-63
2022/05/23 04:26:57;;;;;;;18.08;11.48;;;;;;;;;;4951095;29;20030;-63
2022/05/23 04:29:23;;;;;;;20.92;11.65;;;;;;;;;;4951401;29;20019;-64
2022/05/23 04:31:50;;;;;;;18.92;11.43;;;;;;;;;;4951731;29;20038;-63
2022/05/23 04:37:01;;;;;;;16.60;11.27;;;;;;;;;;4951881;29;20046;-63
2022/05/23 04:39:27;;;;;;;18.85;12.50;;;;;;;;;;4950945;29;20027;-63
2022/05/23 04:41:53;;;;;;;21.63;11.02;;;;;;;;;;4951415;28;20051;-63
2022/05/23 04:44:19;;;;;;;18.33;11.35;;;;;;;;;;4951212;28;20061;-63
2022/05/23 04:49:49;;;;;;;17.80;11.20;;;;;;;;;;4939374;29;20035;-63
2022/05/23 04:52:16;;;;;;;18.27;11.23;;;;;;;;;;4951100;29;20058;-63
2022/05/23 04:54:42;;;;;;;17.67;11.88;;;;;;;;;;4950961;29;20035;-61
2022/05/23 04:57:10;;;;;;;20.30;11.65;;;;;;;;;;4950785;29;20445;-64
2022/05/23 04:59:36;;;;;;;19.58;12.05;;;;;;;;;;4950868;29;20031;-63
2022/05/23 05:02:03;;;;;;;18.25;11.45;;;;;;;;;;4950907;29;20380;-63
2022/05/23 05:04:30;;;;;;;18.10;11.70;;;;;;;;;;4951160;29;20027;-62
2022/05/23 05:06:56;;;;;;;18.67;11.73;;;;;;;;;;4950916;28;20145;-63
2022/05/23 05:09:22;;;;;;;19.00;11.45;;;;;;;;;;4950449;29;20463;-64
2022/05/23 05:11:48;;;;;;;20.88;11.68;;;;;;;;;;4949997;29;20067;-63
2022/05/23 05:14:14;;;;;;;18.45;11.75;;;;;;;;;;4950660;28;20027;-63
2022/05/23 05:16:40;;;;;;;20.60;12.10;;;;;;;;;;4950747;29;20042;-64
2022/05/23 05:19:06;;;;;;;19.33;11.98;;;;;;;;;;4950575;29;20027;-64
2022/05/23 05:21:32;;;;;;;19.55;12.30;;;;;;;;;;4950850;28;20032;-63
2022/05/23 05:23:57;;;;;;;19.40;11.93;;;;;;;;;;4950895;28;20502;-63
2022/05/23 05:26:25;;;;;;;20.30;11.27;;;;;;;;;;5016418;28;20057;-63
2022/05/23 05:28:51;;;;;;;20.65;12.50;;;;;;;;;;5016219;28;20030;-64
2022/05/23 05:31:24;;;;;;;17.35;11.40;;;;;;;;;;4950467;28;20027;-64
2022/05/23 05:33:53;;;;;;;17.80;11.68;;;;;;;;;;4950362;29;20103;-64
2022/05/23 05:36:20;;;;;;;22.05;12.30;;;;;;;;;;4950315;28;20028;-64
2022/05/23 05:38:49;;;;;;;22.17;12.30;;;;;;;;;;4951970;28;20445;-64
2022/05/23 05:41:18;;;;;;;21.73;12.52;;;;;;;;;;4953273;29;20031;-65
2022/05/23 05:44:04;;;;;;;20.58;12.18;;;;;;;;;;4953247;28;20098;-64
2022/05/23 05:46:32;;;;;;;19.17;12.75;;;;;;;;;;4953250;29;20081;-64
2022/05/23 05:49:00;;;;;;;18.93;12.00;;;;;;;;;;4952948;29;20118;-64
2022/05/23 05:51:26;;;;;;;21.60;11.88;;;;;;;;;;4953378;29;20039;-64
2022/05/23 05:53:53;;;;;;;24.35;12.35;;;;;;;;;;4953404;28;20036;-64
2022/05/23 05:56:19;;;;;;;22.70;15.10;;;;;;;;;;5019804;28;20072;-64
2022/05/23 05:58:45;;;;;;;36.40;27.23;;;;;;;;;;4952635;28;20027;-64
2022/05/23 06:01:11;;;;;;;21.10;14.02;;;;;;;;;;5019645;28;20049;-65
2022/05/23 06:03:39;;;;;;;21.67;14.60;;;;;;;;;;4953418;28;20020;-64
2022/05/23 06:11:35;;;;;;;17.77;12.20;;;;;;;;;;4953435;29;20077;-65
2022/05/23 06:14:02;;;;;;;23.40;14.77;;;;;;;;;;4952770;29;20027;-63
2022/05/23 06:16:29;;;;;;;22.50;13.55;;;;;;;;;;4952574;29;20092;-64
2022/05/23 06:18:55;;;;;;;18.77;12.70;;;;;;;;;;4952530;29;20030;-63
2022/05/23 06:21:22;;;;;;;20.38;12.75;;;;;;;;;;4952916;29;20031;-64
2022/05/23 06:23:48;;;;;;;19.98;14.32;;;;;;;;;;4952729;29;20442;-64
2022/05/23 06:26:15;;;;;;;18.20;12.50;;;;;;;;;;4953224;29;20023;-64
2022/05/23 06:28:41;;;;;;;19.75;13.02;;;;;;;;;;4952260;29;20023;-64
2022/05/23 06:31:07;;;;;;;21.55;12.68;;;;;;;;;;4952281;29;20446;-64
2022/05/23 06:33:33;;;;;;;21.48;13.48;;;;;;;;;;4952856;29;20032;-64
2022/05/23 06:35:59;;;;;;;20.30;13.93;;;;;;;;;;4952441;29;20035;-64
2022/05/23 06:38:25;;;;;;;19.73;13.50;;;;;;;;;;4951849;29;20027;-63
2022/05/23 06:40:52;;;;;;;21.83;13.25;;;;;;;;;;4953393;28;20034;-64
2022/05/23 06:43:18;;;;;;;23.10;13.40;;;;;;;;;;5019105;28;20031;-64
2022/05/23 06:45:45;;;;;;;24.40;12.35;;;;;;;;;;5019500;28;20398;-65
2022/05/23 06:48:11;;;;;;;21.85;13.13;;;;;;;;;;5018717;28;20039;-65
2022/05/23 06:50:37;;;;;;;21.55;13.18;;;;;;;;;;5019109;28;20395;-63
2022/05/23 06:53:03;;;;;;;20.95;13.43;;;;;;;;;;4952784;29;20030;-65
2022/05/23 06:55:29;;;;;;;23.23;15.73;;;;;;;;;;4952496;29;20405;-66
2022/05/23 06:57:55;;;;;;;19.13;13.13;;;;;;;;;;4982780;23;20151;-65
2022/05/23 07:00:21;;;;;;;18.70;12.50;;;;;;;;;;4951679;29;20031;-66
2022/05/23 07:02:48;;;;;;;22.08;13.80;;;;;;;;;;4934601;29;20031;-64
2022/05/23 07:13:28;;;;;;;19.17;12.25;;;;;;;;;;4951966;29;20055;-63
2022/05/23 07:15:55;;;;;;;21.10;13.38;;;;;;;;;;4951654;28;20391;-63
2022/05/23 07:18:22;;;;;;;18.98;12.43;;;;;;;;;;4951178;29;20031;-64
2022/05/23 07:20:48;;;;;;;22.00;12.52;;;;;;;;;;4951826;28;20027;-63
2022/05/23 07:23:14;;;;;;;18.98;12.27;;;;;;;;;;5017628;28;20050;-64
2022/05/23 07:25:41;;;;;;;22.23;12.13;;;;;;;;;;4951931;28;20028;-63
2022/05/23 07:28:07;;;;;;;20.70;12.55;;;;;;;;;;4950860;29;20101;-65
2022/05/23 07:30:33;;;;;;;18.30;12.25;;;;;;;;;;4951411;28;20023;-64
2022/05/23 07:32:59;;;;;;;16.95;12.35;;;;;;;;;;4951383;29;20407;-65
2022/05/23 07:35:25;;;;;;;21.08;13.85;;;;;;;;;;4951242;28;20057;-64
2022/05/23 07:37:51;;;;;;;24.05;14.20;;;;;;;;;;4950664;28;20039;-63
2022/05/23 07:40:18;;;;;;;20.08;12.43;;;;;;;;;;4951400;28;20099;-65
2022/05/23 07:42:44;;;;;;;22.20;12.90;;;;;;;;;;4951075;28;20036;-63
2022/05/23 07:45:11;;;;;;;18.17;12.80;;;;;;;;;;4950788;29;20168;-61
2022/05/23 07:47:37;;;;;;;24.33;13.30;;;;;;;;;;4950512;29;20558;-63
2022/05/23 07:50:04;;;;;;;17.80;12.38;;;;;;;;;;4950774;29;20023;-64
2022/05/23 07:52:30;;;;;;;18.15;12.93;;;;;;;;;;4950124;28;20473;-62
2022/05/23 08:00:31;;;;;;;18.13;13.18;;;;;;;;;;4938204;29;20054;-64
2022/05/23 08:00:33;;;;;;;23.00;13.70;;;;;;;;;;4951437;28;20035;-63
2022/05/23 08:03:08;;;;;;;19.35;12.95;;;;;;;;;;4934941;29;20028;-63
2022/05/23 08:05:34;;;;;;;19.15;12.82;;;;;;;;;;4931242;28;20506;-64
2022/05/23 08:08:00;;;;;;;19.52;13.68;;;;;;;;;;4933445;28;20028;-64
2022/05/23 08:10:26;;;;;;;20.65;12.77;;;;;;;;;;4938225;28;20054;-64
2022/05/23 08:12:54;;;;;;;18.27;13.15;;;;;;;;;;4950485;29;20085;-63
2022/05/23 08:15:20;;;;;;;21.33;13.18;;;;;;;;;;4950648;29;20126;-63
2022/05/23 08:17:47;;;;;;;19.70;13.50;;;;;;;;;;4950170;29;20459;-56
2022/05/23 08:20:13;;;;;;;17.27;13.40;;;;;;;;;;4950322;29;20036;-56
2022/05/23 08:22:39;;;;;;;20.13;13.38;;;;;;;;;;5016305;28;20084;-57
2022/05/23 08:25:05;;;;;;;20.35;13.60;;;;;;;;;;4950135;29;20073;-56
2022/05/23 08:27:32;;;;;;;18.50;12.60;;;;;;;;;;4942862;29;20027;-56
2022/05/23 08:29:59;;;;;;;20.02;13.10;;;;;;;;;;4931120;28;20499;-57
2022/05/23 08:32:25;;;;;;;18.98;12.95;;;;;;;;;;4931100;28;20110;-57
2022/05/23 08:34:52;;;;;;;17.55;12.52;;;;;;;;;;4931245;28;20161;-58
2022/05/23 08:37:18;;;;;;;19.05;13.15;;;;;;;;;;4930997;28;20024;-56
2022/05/23 08:39:44;;;;;;;20.33;12.18;;;;;;;;;;4931322;29;20368;-53
2022/05/23 08:42:12;;;;;;;20.70;13.18;;;;;;;;;;4936889;28;20050;-56
2022/05/23 08:44:41;;;;;;;17.75;12.75;;;;;;;;;;4939362;28;20098;-55
2022/05/23 08:47:13;;;;;;;17.30;12.32;;;;;;;;;;4939441;28;20451;-55
2022/05/23 08:49:51;;;;;;;19.00;13.07;;;;;;;;;;4939319;28;20016;-55
2022/05/23 08:52:34;;;;;;;20.02;13.10;;;;;;;;;;4939060;28;20068;-51
2022/05/23 08:55:08;;;;;;;20.83;12.57;;;;;;;;;;4597161;28;10000904;-57
2022/05/23 08:57:35;;;;;;;23.67;13.27;;;;;;;;;;5002937;28;20064;-59
2022/05/23 09:00:04;;;;;;;17.23;13.35;;;;;;;;;;4939813;28;20192;-58
2022/05/23 09:02:34;;;;;;;19.13;13.40;;;;;;;;;;4946789;29;20031;-55
2022/05/23 09:05:04;;;;;;;18.75;12.40;;;;;;;;;;4938799;29;20027;-56
2022/05/23 09:07:38;;;;;;;21.13;13.95;;;;;;;;;;4927539;29;20050;-56
2022/05/23 09:10:36;;;;;;;18.40;12.52;;;;;;;;;;4930557;29;20284;-57
2022/05/23 09:13:02;;;;;;;19.60;12.10;;;;;;;;;;4939524;28;20049;-55
2022/05/23 09:15:28;;;;;;;19.00;12.90;;;;;;;;;;4931622;29;20032;-58
2022/05/23 09:17:59;;;;;;;20.67;13.18;;;;;;;;;;4930124;29;20030;-56
2022/05/23 09:20:43;;;;;;;20.58;13.40;;;;;;;;;;4931663;29;20027;-55
2022/05/23 09:23:11;;;;;;;22.55;13.38;;;;;;;;;;4937581;28;20031;-53
2022/05/23 09:25:38;;;;;;;;;;;;;;;;;;4999417;28;20547;-59
2022/05/23 09:28:09;;;;;;;17.83;12.82;;;;;;;;;;4937138;29;19914;-57
2022/05/23 09:30:36;;;;;;;20.77;13.18;;;;;;;;;;4942275;29;20089;-55
2022/05/23 09:33:02;;;;;;;20.45;12.95;;;;;;;;;;4942354;29;20073;-53
2022/05/23 09:35:29;;;;;;;18.15;12.82;;;;;;;;;;4942406;28;20059;-50
2022/05/23 09:38:16;;;;;;;19.75;13.40;;;;;;;;;;5007673;28;20055;-55
2022/05/23 09:40:42;;;;;;;21.02;13.35;;;;;;;;;;4949009;29;20252;-53
2022/05/23 09:49:09;;;;;;;18.92;13.20;;;;;;;;;;4952182;29;20111;-57
2022/05/23 09:51:50;;;;;;;19.00;13.15;;;;;;;;;;4952622;28;20027;-52
2022/05/23 09:54:40;;;;;;;20.35;13.13;;;;;;;;;;4952671;29;20181;-55
2022/05/23 09:57:22;;;;;;;21.13;13.88;;;;;;;;;;5002647;28;20048;-58
2022/05/23 09:59:54;;;;;;;26.40;15.07;;;;;;;;;;4933314;29;20035;-54
2022/05/23 10:02:32;;;;;;;32.17;14.23;;;;;;;;;;4932971;29;20032;-54
2022/05/23 10:04:58;;;;;;;30.65;14.80;;;;;;;;;;4943572;29;20027;-54
2022/05/23 10:07:38;;;;;;;22.63;13.15;;;;;;;;;;4952087;28;20050;-56
2022/05/23 10:10:06;;;;;;;19.48;13.15;;;;;;;;;;4952395;29;20478;-55
2022/05/23 10:12:32;;;;;;;;;;;;;;;;;;4952553;29;20081;-57
2022/05/23 10:15:11;;;;;;;17.30;12.45;;;;;;;;;;4952015;29;19910;-60
2022/05/23 10:17:38;;;;;;;18.33;12.35;;;;;;;;;;4952144;29;20074;-54
2022/05/23 10:20:23;;;;;;;16.63;11.90;;;;;;;;;;4952488;29;20024;-51
2022/05/23 10:22:53;;;;;;;18.63;12.48;;;;;;;;;;4952208;29;20034;-54
2022/05/23 10:25:20;;;;;;;18.10;12.35;;;;;;;;;;5017605;28;20085;-57
2022/05/23 10:27:54;;;;;;;19.83;12.82;;;;;;;;;;5018036;28;20471;-50
2022/05/23 10:30:21;;;;;;;17.08;11.85;;;;;;;;;;4951983;29;20027;-58
2022/05/23 10:32:48;;;;;;;18.88;11.77;;;;;;;;;;4951948;29;20399;-57
2022/05/23 10:35:33;;;;;;;18.67;12.15;;;;;;;;;;5018064;28;20028;-55
2022/05/23 10:42:07;;;;;;;19.38;12.32;;;;;;;;;;4951476;29;20035;-54
2022/05/23 10:43:48;;;;;;;18.75;13.27;;;;;;;;;;4952068;29;20817;-53
2022/05/23 10:46:14;;;;;;;17.90;12.63;;;;;;;;;;4951754;29;20027;-55
2022/05/23 10:49:05;;;;;;;21.05;12.45;;;;;;;;;;4951590;29;20035;-54
2022/05/23 10:51:33;;;;;;;21.30;13.73;;;;;;;;;;4952076;29;20023;-55
2022/05/23 10:53:59;;;;;;;19.08;12.95;;;;;;;;;;4952033;29;20062;-56
2022/05/23 10:56:25;;;;;;;17.85;12.82;;;;;;;;;;4948335;28;20055;-56
2022/05/23 10:58:54;;;;;;;18.52;12.70;;;;;;;;;;4932689;29;20174;-55
2022/05/23 11:01:39;;;;;;;18.63;12.80;;;;;;;;;;4932526;29;20388;-56
2022/05/23 11:04:17;;;;;;;17.73;12.75;;;;;;;;;;4936700;29;20029;-55
2022/05/23 11:06:43;;;;;;;23.02;13.27;;;;;;;;;;5017552;28;20055;-56
2022/05/23 11:09:27;;;;;;;19.15;12.98;;;;;;;;;;4951448;29;20070;-53
2022/05/23 11:11:58;;;;;;;17.55;12.85;;;;;;;;;;4951297;29;20380;-50
2022/05/23 11:14:27;;;;;;;15.85;12.20;;;;;;;;;;4951712;29;20096;-57
2022/05/23 11:17:01;;;;;;;17.30;12.23;;;;;;;;;;4951423;29;20111;-58
2022/05/23 11:19:36;;;;;;;17.98;12.40;;;;;;;;;;4951271;29;20031;-56
2022/05/23 11:22:02;;;;;;;18.00;12.30;;;;;;;;;;4951708;29;20040;-57
2022/05/23 11:24:34;;;;;;;19.83;13.03;;;;;;;;;;4265229;28;10000404;-55
2022/05/23 11:35:41;;;;;;;17.52;12.63;;;;;;;;;;4933930;28;20042;-57
2022/05/23 11:38:08;;;;;;;17.27;12.00;;;;;;;;;;4998654;28;20026;-58
2022/05/23 11:40:40;;;;;;;19.43;13.27;;;;;;;;;;4938198;29;20035;-56
2022/05/23 11:43:06;;;;;;;17.02;12.70;;;;;;;;;;4937553;28;20027;-58
2022/05/23 11:45:59;;;;;;;17.65;12.35;;;;;;;;;;4947696;29;20042;-58
2022/05/23 11:48:40;;;;;;;17.23;12.80;;;;;;;;;;4594666;28;10000242;-53
2022/05/23 11:51:22;;;;;;;17.40;12.55;;;;;;;;;;4948946;29;20078;-59
2022/05/23 11:53:55;;;;;;;16.70;11.98;;;;;;;;;;4948614;29;20019;-56
2022/05/23 11:56:40;;;;;;;19.92;12.95;;;;;;;;;;4946416;29;20075;-58
2022/05/23 11:59:08;;;;;;;17.25;12.55;;;;;;;;;;4929836;29;20028;-62
2022/05/23 12:01:35;;;;;;;19.10;13.50;;;;;;;;;;4937505;29;20036;-58
2022/05/23 12:04:01;;;;;;;17.50;12.95;;;;;;;;;;4934637;28;20035;-58
2022/05/23 12:06:28;;;;;;;18.20;13.23;;;;;;;;;;4929473;28;20043;-59
2022/05/23 12:09:00;;;;;;;17.85;13.63;;;;;;;;;;4929329;29;20067;-62
2022/05/23 12:11:33;;;;;;;16.83;13.10;;;;;;;;;;4929978;28;20053;-59
2022/05/23 12:14:16;;;;;;;16.75;12.63;;;;;;;;;;4930398;28;20028;-60
2022/05/23 12:16:57;;;;;;;17.05;12.32;;;;;;;;;;4590958;28;10000555;-60
2022/05/23 12:19:39;;;;;;;16.27;12.90;;;;;;;;;;4929043;29;20031;-61
2022/05/23 12:22:17;;;;;;;17.00;13.30;;;;;;;;;;4932391;29;20122;-60
2022/05/23 12:25:06;;;;;;;16.13;12.57;;;;;;;;;;4943813;29;20033;-59
2022/05/23 12:27:36;;;;;;;16.90;12.98;;;;;;;;;;5006767;28;20154;-59
2022/05/23 12:30:20;;;;;;;16.92;13.43;;;;;;;;;;4945447;28;20050;-59
2022/05/23 12:32:59;;;;;;;16.98;13.05;;;;;;;;;;4931445;29;20031;-62
2022/05/23 12:35:31;;;;;;;18.35;13.15;;;;;;;;;;4931449;29;20472;-62
2022/05/23 12:37:57;;;;;;;17.30;13.00;;;;;;;;;;4938551;29;20035;-61
2022/05/23 12:40:29;;;;;;;21.42;14.43;;;;;;;;;;5016781;28;20028;-61
2022/05/23 12:43:01;;;;;;;17.70;12.93;;;;;;;;;;5016034;28;20042;-59
2022/05/23 12:45:33;;;;;;;18.23;12.77;;;;;;;;;;4950109;29;20455;-62
2022/05/23 12:47:59;;;;;;;18.05;13.13;;;;;;;;;;4950033;29;20027;-62
2022/05/23 12:50:50;;;;;;;17.42;13.00;;;;;;;;;;5016378;28;20364;-59
2022/05/23 12:53:16;;;;;;;18.83;13.32;;;;;;;;;;4950392;29;20027;-61
2022/05/23 12:56:00;;;;;;;18.25;13.38;;;;;;;;;;4945602;28;20054;-59
2022/05/23 12:58:35;;;;;;;19.50;13.20;;;;;;;;;;4957554;23;20055;-64
2022/05/23 13:01:03;;;;;;;17.70;13.35;;;;;;;;;;4951253;28;20059;-62
2022/05/23 13:03:34;;;;;;;16.67;13.05;;;;;;;;;;4951676;29;20031;-60
2022/05/23 13:06:03;;;;;;;18.40;13.55;;;;;;;;;;4951243;28;20032;-64
2022/05/23 13:08:48;;;;;;;17.42;12.85;;;;;;;;;;4950652;28;20032;-60
2022/05/23 13:11:20;;;;;;;17.17;13.40;;;;;;;;;;4950746;28;20101;-63
2022/05/23 13:13:49;;;;;;;17.63;12.70;;;;;;;;;;4951087;29;20040;-64
2022/05/23 13:16:26;;;;;;;17.58;13.32;;;;;;;;;;5017179;28;20030;-64
2022/05/23 13:27:09;;;;;;;16.67;13.32;;;;;;;;;;4928865;29;20057;-63
2022/05/23 13:29:35;;;;;;;19.85;13.07;;;;;;;;;;4928617;28;20032;-64
2022/05/23 13:32:04;;;;;;;17.05;12.25;;;;;;;;;;4994602;28;20052;-64
2022/05/23 13:34:37;;;;;;;17.40;12.50;;;;;;;;;;4938295;28;20020;-64
2022/05/23 13:37:03;;;;;;;16.25;12.43;;;;;;;;;;4937215;28;20031;-64
2022/05/23 13:39:29;;;;;;;19.75;12.60;;;;;;;;;;5006239;28;20502;-61
2022/05/23 13:41:56;;;;;;;17.85;12.68;;;;;;;;;;5013733;28;20039;-65
2022/05/23 13:44:26;;;;;;;19.20;12.70;;;;;;;;;;4947778;29;20028;-63
2022/05/23 13:47:02;;;;;;;16.58;11.98;;;;;;;;;;4948905;28;20059;-63
2022/05/23 13:49:40;;;;;;;17.27;12.68;;;;;;;;;;4948823;29;20471;-61
2022/05/23 13:52:09;;;;;;;18.65;12.93;;;;;;;;;;4592991;28;9999676;-64
2022/05/23 13:54:47;;;;;;;17.33;12.50;;;;;;;;;;4928865;29;20107;-64
2022/05/23 13:57:13;;;;;;;18.35;12.55;;;;;;;;;;4928137;29;20032;-64
2022/05/23 13:59:45;;;;;;;17.58;12.80;;;;;;;;;;4930503;29;20039;-64
2022/05/23 14:02:17;;;;;;;18.08;12.55;;;;;;;;;;4934213;29;20053;-64
2022/05/23 14:04:43;;;;;;;16.88;12.98;;;;;;;;;;4939662;29;20034;-63
2022/05/23 14:07:11;;;;;;;16.52;12.57;;;;;;;;;;5007120;28;20102;-60
2022/05/23 14:09:41;;;;;;;17.15;12.57;;;;;;;;;;4939633;28;20042;-63
2022/05/23 14:12:11;;;;;;;16.85;12.50;;;;;;;;;;5008251;28;20089;-60
2022/05/23 14:14:42;;;;;;;19.10;12.68;;;;;;;;;;4950828;29;20399;-65
2022/05/23 14:17:11;;;;;;;21.60;14.00;;;;;;;;;;5016657;28;20434;-61
2022/05/23 14:19:50;;;;;;;17.50;12.90;;;;;;;;;;4945049;29;20046;-62
2022/05/23 14:22:25;;;;;;;18.60;13.15;;;;;;;;;;5017006;28;20201;-63
2022/05/23 14:24:52;;;;;;;16.38;12.38;;;;;;;;;;4950417;28;20411;-66
2022/05/23 14:27:20;;;;;;;16.35;12.13;;;;;;;;;;4950662;28;20023;-63
2022/05/23 14:29:47;;;;;;;16.88;12.98;;;;;;;;;;5016992;28;20031;-66
2022/05/23 14:32:15;;;;;;;17.03;12.23;;;;;;;;;;5009528;28;20490;-58
2022/05/23 14:34:43;;;;;;;17.70;13.03;;;;;;;;;;4998776;28;20023;-62
2022/05/23 14:37:10;;;;;;;21.15;12.73;;;;;;;;;;4998460;28;20035;-61
2022/05/23 14:39:36;;;;;;;16.92;11.70;;;;;;;;;;4934102;29;20030;-62
2022/05/23 14:42:20;;;;;;;18.15;12.48;;;;;;;;;;4934176;29;20029;-62
2022/05/23 14:45:02;;;;;;;17.47;12.10;;;;;;;;;;4651803;28;10000295;-60
2022/05/23 14:47:29;;;;;;;19.08;12.45;;;;;;;;;;4930916;29;20276;-58
2022/05/23 14:50:18;;;;;;;20.70;12.70;;;;;;;;;;4996249;28;20119;-61
2022/05/23 14:55:17;;;;;;;17.17;11.90;;;;;;;;;;4930697;29;20043;-60
2022/05/23 14:55:42;;;;;;;19.30;12.48;;;;;;;;;;4930613;28;20032;-60
2022/05/23 15:00:58;;;;;;;18.05;12.43;;;;;;;;;;4938587;28;20043;-60
2022/05/23 15:03:25;;;;;;;17.02;11.50;;;;;;;;;;4996537;28;20032;-60
2022/05/23 15:05:56;;;;;;;16.65;11.77;;;;;;;;;;4930893;28;20107;-59
2022/05/23 15:08:23;;;;;;;16.98;11.45;;;;;;;;;;5001880;28;20028;-56
2022/05/23 15:10:50;;;;;;;18.40;11.88;;;;;;;;;;4946038;29;20059;-60
2022/05/23 15:13:16;;;;;;;19.70;12.57;;;;;;;;;;4933137;28;20035;-61
2022/05/23 15:15:42;;;;;;;19.60;12.27;;;;;;;;;;4931259;29;20522;-61
2022/05/23 15:18:09;;;;;;;18.55;11.88;;;;;;;;;;4930368;28;20081;-61
2022/05/23 15:20:35;;;;;;;17.83;12.13;;;;;;;;;;4933682;29;20043;-60
2022/05/23 15:23:01;;;;;;;17.15;12.00;;;;;;;;;;4941300;29;20097;-61
2022/05/23 15:25:27;;;;;;;16.75;11.57;;;;;;;;;;4948938;29;20035;-61
2022/05/23 15:27:53;;;;;;;18.52;12.35;;;;;;;;;;5015564;28;20066;-60
2022/05/23 15:30:24;;;;;;;18.90;11.98;;;;;;;;;;5007379;28;20059;-59
2022/05/23 15:32:50;;;;;;;17.15;11.75;;;;;;;;;;4995797;28;20042;-60
2022/05/23 15:35:16;;;;;;;18.02;12.00;;;;;;;;;;4996688;28;20027;-61